Time;durP1;ratioP1;P1;durP2;ratioP2;P2;SDS_P1;SDS_P2;PMS_P1;PMS_P2;Temp;Humidity;BMP_temperature;BMP_pressure;BME280_temperature;BME280_humidity;BME280_pressure;Samples;Min_cycle;Max_cycle;Signal;HPM_P1;HPM_P2
2022/04/19 00:00:16;;;;;;;9.30;6.93;;;;;;;6.29;74.00;100298.59;5013070;28;20735;-77
2022/04/19 00:02:42;;;;;;;8.68;7.05;;;;;;;6.35;74.59;100293.47;5014645;28;20052;-74
2022/04/19 00:05:09;;;;;;;10.48;7.22;;;;;;;6.45;74.13;100295.34;4995409;28;20080;-77
2022/04/19 00:07:36;;;;;;;10.43;8.05;;;;;;;5.90;74.60;100247.59;5013696;28;20042;-74
2022/04/19 00:10:01;;;;;;;9.30;6.55;;;;;;;5.69;75.20;100170.03;5014088;28;20077;-74
2022/04/19 00:12:27;;;;;;;7.63;5.95;;;;;;;6.17;74.72;100246.28;5012636;28;20029;-75
2022/04/19 00:14:54;;;;;;;8.35;7.03;;;;;;;6.29;74.75;100291.63;5016605;28;20482;-74
2022/04/19 00:17:19;;;;;;;9.48;7.25;;;;;;;6.10;75.02;100250.53;5014918;28;20054;-74
2022/04/19 00:19:45;;;;;;;8.95;7.15;;;;;;;6.09;75.15;100233.16;4998598;28;20051;-77
2022/04/19 00:22:12;;;;;;;8.05;6.90;;;;;;;6.45;74.09;100278.84;5020501;28;20045;-77
2022/04/19 00:24:38;;;;;;;8.82;7.15;;;;;;;6.47;74.61;100291.03;5018059;28;20033;-75
2022/04/19 00:27:04;;;;;;;8.35;6.95;;;;;;;6.51;75.12;100281.56;5015418;28;20128;-74
2022/04/19 00:29:30;;;;;;;9.63;6.53;;;;;;;6.41;75.21;100274.44;5019971;28;20085;-74
2022/04/19 00:31:55;;;;;;;9.75;6.28;;;;;;;6.45;74.68;100295.34;5015793;28;20442;-72
2022/04/19 00:34:21;;;;;;;9.32;6.88;;;;;;;6.22;74.70;100240.28;5015478;28;20053;-73
2022/04/19 00:36:53;;;;;;;9.88;6.75;;;;;;;6.21;74.46;100262.00;5015728;28;20069;-77
2022/04/19 00:39:18;;;;;;;8.23;6.07;;;;;;;6.16;74.37;100236.72;5013646;28;20137;-76
2022/04/19 00:41:44;;;;;;;8.52;6.07;;;;;;;6.42;75.37;100289.25;5017663;28;20120;-76
2022/04/19 00:44:11;;;;;;;8.15;6.05;;;;;;;5.98;75.41;100237.31;5017885;28;20057;-74
2022/04/19 00:46:36;;;;;;;7.78;6.72;;;;;;;6.28;75.78;100304.66;4998583;28;20084;-75
2022/04/19 00:49:03;;;;;;;9.50;7.07;;;;;;;6.23;74.40;100226.44;5018715;28;21516;-73
2022/04/19 00:51:31;;;;;;;8.50;6.40;;;;;;;6.31;75.08;100283.84;5020824;28;20033;-73
2022/04/19 00:53:57;;;;;;;7.72;5.85;;;;;;;6.38;75.21;100266.59;5019231;28;20045;-75
2022/04/19 00:56:23;;;;;;;9.07;6.53;;;;;;;6.23;74.22;100228.16;5012970;28;20109;-74
2022/04/19 00:58:49;;;;;;;9.82;6.38;;;;;;;6.52;73.95;100278.94;5000424;28;20053;-75
2022/04/19 01:01:15;;;;;;;8.00;5.85;;;;;;;6.55;74.13;100280.72;5018768;28;20575;-75
2022/04/19 01:03:42;;;;;;;9.63;6.85;;;;;;;6.39;75.03;100276.13;5016138;28;20038;-74
2022/04/19 01:06:08;;;;;;;10.20;7.55;;;;;;;6.37;74.97;100259.59;5008186;28;20047;-74
2022/04/19 01:08:34;;;;;;;9.23;7.22;;;;;;;6.51;75.31;100261.56;5008946;28;20046;-74
2022/04/19 01:13:43;;;;;;;10.80;7.45;;;;;;;6.37;75.97;100270.94;5008076;28;20160;-73
2022/04/19 01:16:08;;;;;;;11.75;7.45;;;;;;;6.41;76.20;100269.22;4995401;28;20490;-74
2022/04/19 01:18:35;;;;;;;8.68;6.90;;;;;;;6.29;76.22;100267.31;5013911;28;20910;-74
2022/04/19 01:21:01;;;;;;;9.38;6.88;;;;;;;6.25;75.91;100258.59;5010643;28;20053;-74
2022/04/19 01:23:28;;;;;;;10.43;7.68;;;;;;;6.31;75.63;100250.84;5015319;28;20042;-77
2022/04/19 01:25:57;;;;;;;8.00;6.78;;;;;;;6.32;75.67;100262.13;5015475;28;20132;-73
2022/04/19 01:28:24;;;;;;;9.35;7.63;;;;;;;6.02;75.42;100179.22;5002988;28;20049;-77
2022/04/19 01:30:52;;;;;;;12.00;8.10;;;;;;;6.09;75.57;100230.56;5021176;28;22720;-75
2022/04/19 01:33:20;;;;;;;10.70;8.50;;;;;;;6.29;76.32;100251.69;5018820;28;20042;-73
2022/04/19 01:35:46;;;;;;;8.57;7.15;;;;;;;5.57;75.20;100135.97;4999298;28;21483;-75
2022/04/19 01:38:12;;;;;;;14.85;8.32;;;;;;;6.45;75.90;100266.69;5020116;28;20561;-74
2022/04/19 01:40:37;;;;;;;9.55;7.82;;;;;;;6.27;75.38;100246.44;4986969;28;20069;-74
2022/04/19 01:43:04;;;;;;;11.00;8.55;;;;;;;6.08;75.95;100218.38;5019035;28;20097;-76
2022/04/19 01:45:32;;;;;;;11.32;8.48;;;;;;;6.01;77.42;100208.72;5020460;28;20044;-74
2022/04/19 01:47:59;;;;;;;8.90;7.47;;;;;;;6.27;77.77;100256.00;5019767;28;20938;-75
2022/04/19 01:50:27;;;;;;;12.02;8.73;;;;;;;6.16;77.31;100258.44;5021595;28;20072;-74
2022/04/19 01:52:56;;;;;;;10.93;8.00;;;;;;;6.22;77.04;100249.84;5018026;28;20041;-76
2022/04/19 01:55:23;;;;;;;11.80;9.38;;;;;;;5.71;76.82;100161.38;5018359;28;20054;-75
2022/04/19 01:57:53;;;;;;;12.30;8.00;;;;;;;5.93;77.70;100237.22;5017970;28;20029;-77
2022/04/19 02:00:21;;;;;;;14.77;9.77;;;;;;;6.12;77.67;100241.88;5020824;28;20045;-74
2022/04/19 02:02:47;;;;;;;12.07;9.13;;;;;;;6.16;77.73;100236.72;5018073;28;20053;-76
2022/04/19 02:05:14;;;;;;;15.50;8.90;;;;;;;6.24;77.63;100240.31;4981576;28;20421;-74
2022/04/19 02:07:42;;;;;;;12.18;8.70;;;;;;;6.09;77.77;100235.78;5017541;28;20520;-74
2022/04/19 02:10:11;;;;;;;10.80;8.65;;;;;;;6.21;78.60;100245.50;5018772;28;20046;-74
2022/04/19 02:12:38;;;;;;;10.15;8.45;;;;;;;5.92;78.63;100202.50;5018315;28;20113;-75
2022/04/19 02:15:06;;;;;;;13.02;8.48;;;;;;;6.29;78.66;100246.47;5018709;28;20100;-74
2022/04/19 02:17:32;;;;;;;10.23;8.48;;;;;;;6.23;78.99;100235.97;4998550;28;20045;-75
2022/04/19 02:20:03;;;;;;;15.23;9.48;;;;;;;6.36;78.58;100244.84;5019174;28;20541;-78
2022/04/19 02:22:30;;;;;;;10.80;8.93;;;;;;;6.27;79.10;100245.56;5018519;28;20052;-74
2022/04/19 02:24:56;;;;;;;12.00;9.60;;;;;;;6.13;78.58;100235.84;5006508;28;20021;-78
2022/04/19 02:27:28;;;;;;;12.52;8.60;;;;;;;6.30;78.98;100248.25;5003266;28;20174;-75
2022/04/19 02:29:57;;;;;;;12.75;10.50;;;;;;;6.19;78.29;100244.59;5018313;28;20127;-75
2022/04/19 02:32:24;;;;;;;12.10;9.55;;;;;;;6.04;78.83;100195.72;5002376;28;20111;-74
2022/04/19 02:34:51;;;;;;;12.50;9.35;;;;;;;5.94;79.14;100197.31;5014273;28;20081;-74
2022/04/19 02:37:18;;;;;;;13.70;9.18;;;;;;;5.99;79.28;100207.81;4980361;28;20081;-75
2022/04/19 02:39:47;;;;;;;15.02;9.38;;;;;;;6.22;79.41;100250.72;4999907;28;20081;-76
2022/04/19 02:42:13;;;;;;;11.25;9.35;;;;;;;5.91;79.47;100182.50;5017148;28;20706;-75
2022/04/19 02:44:39;;;;;;;11.20;8.82;;;;;;;6.25;78.78;100229.03;4997537;28;20128;-74
2022/04/19 02:47:05;;;;;;;10.07;8.75;;;;;;;6.01;78.61;100180.06;5017792;28;20041;-75
2022/04/19 02:49:31;;;;;;;11.30;9.07;;;;;;;6.26;78.29;100255.13;5017749;28;20049;-74
2022/04/19 02:51:57;;;;;;;10.02;8.18;;;;;;;6.36;78.20;100247.44;4999765;28;20373;-76
2022/04/19 02:54:23;;;;;;;12.52;9.00;;;;;;;5.91;78.24;100207.66;5015608;28;20050;-74
2022/04/19 02:56:49;;;;;;;11.60;9.30;;;;;;;5.97;78.01;100202.59;4995633;28;20112;-76
2022/04/19 02:59:15;;;;;;;11.57;8.73;;;;;;;6.26;77.99;100254.25;5014797;28;20433;-75
2022/04/19 03:01:42;;;;;;;11.38;8.50;;;;;;;6.17;78.02;100251.50;5017074;28;20943;-72
2022/04/19 03:04:07;;;;;;;11.23;8.23;;;;;;;5.65;78.78;100225.47;5019601;28;20064;-76
2022/04/19 03:06:35;;;;;;;10.63;7.80;;;;;;;6.09;78.72;100273.09;5015277;28;20041;-76
2022/04/19 03:09:00;;;;;;;9.80;8.73;;;;;;;5.69;78.37;100212.53;5011672;28;20510;-73
2022/04/19 03:11:27;;;;;;;10.38;8.27;;;;;;;5.77;78.04;100224.81;5014151;28;20046;-72
2022/04/19 03:13:54;;;;;;;10.57;8.48;;;;;;;5.81;78.78;100284.75;5016516;28;20122;-75
2022/04/19 03:16:19;;;;;;;9.85;8.35;;;;;;;5.95;78.83;100281.53;5018069;28;20037;-76
2022/04/19 03:18:45;;;;;;;16.05;10.18;;;;;;;6.06;78.06;100286.09;5016189;28;20033;-76
2022/04/19 03:21:11;;;;;;;9.80;7.72;;;;;;;5.91;78.80;100283.19;4993951;28;20544;-74
2022/04/19 03:29:08;;;;;;;8.68;7.43;;;;;;;6.17;77.71;100298.41;5016460;28;20116;-76
2022/04/19 03:31:34;;;;;;;10.30;7.90;;;;;;;5.72;77.44;100232.53;5011441;28;20068;-77
2022/04/19 03:34:01;;;;;;;10.07;8.05;;;;;;;6.00;78.00;100282.50;4998531;28;20055;-73
2022/04/19 03:36:27;;;;;;;11.05;8.43;;;;;;;5.60;78.31;100238.41;4980579;28;20033;-73
2022/04/19 03:38:54;;;;;;;10.18;7.47;;;;;;;6.28;77.35;100307.28;4999751;28;20340;-75
2022/04/19 03:41:21;;;;;;;10.70;7.13;;;;;;;6.27;77.22;100301.16;4996862;28;20039;-75
2022/04/19 03:43:47;;;;;;;10.63;7.50;;;;;;;6.29;75.85;100309.88;4984089;28;20046;-75
2022/04/19 03:46:12;;;;;;;11.30;7.82;;;;;;;5.98;76.77;100316.31;4997672;28;20052;-74
2022/04/19 03:48:38;;;;;;;8.50;7.05;;;;;;;6.23;76.93;100314.13;4995264;28;20116;-74
2022/04/19 03:51:05;;;;;;;9.40;7.70;;;;;;;6.19;75.47;100297.56;4989406;28;20168;-76
2022/04/19 03:53:32;;;;;;;10.10;7.85;;;;;;;6.11;76.28;100306.97;4994099;28;20046;-76
2022/04/19 03:56:03;;;;;;;10.40;8.10;;;;;;;6.38;76.75;100316.97;4998698;28;20788;-73
2022/04/19 03:58:32;;;;;;;10.95;7.68;;;;;;;5.96;77.24;100255.53;4995106;28;20132;-74
2022/04/19 04:00:58;;;;;;;13.23;7.55;;;;;;;6.55;76.97;100320.72;4971671;28;20204;-73
2022/04/19 04:03:24;;;;;;;12.48;8.30;;;;;;;6.47;76.37;100311.03;4995983;28;20593;-77
2022/04/19 04:05:50;;;;;;;10.70;7.43;;;;;;;6.53;76.15;100317.22;4994198;28;20054;-74
2022/04/19 04:08:18;;;;;;;12.93;8.32;;;;;;;5.95;76.16;100289.34;4979236;28;20079;-76
2022/04/19 04:10:43;;;;;;;10.82;8.10;;;;;;;6.35;75.56;100322.16;4982683;28;20046;-75
2022/04/19 04:13:10;;;;;;;8.60;7.25;;;;;;;5.98;75.75;100282.47;4997058;28;20086;-75
2022/04/19 04:15:37;;;;;;;18.05;9.63;;;;;;;6.30;76.32;100322.06;4995006;28;20046;-74
2022/04/19 04:18:03;;;;;;;9.85;7.85;;;;;;;6.48;76.57;100342.31;4976609;28;20378;-78
2022/04/19 04:20:29;;;;;;;14.30;8.80;;;;;;;6.14;76.80;100286.19;4991348;28;20050;-75
2022/04/19 04:22:54;;;;;;;13.48;7.75;;;;;;;6.51;75.97;100328.47;4987840;28;20117;-77
2022/04/19 04:25:20;;;;;;;10.75;7.88;;;;;;;5.69;78.05;100288.03;4991563;28;20096;-76
2022/04/19 04:27:45;;;;;;;10.57;8.75;;;;;;;6.38;76.89;100340.41;4992884;28;20022;-79
2022/04/19 04:30:12;;;;;;;16.90;8.85;;;;;;;6.59;77.88;100346.81;4997113;28;20744;-75
2022/04/19 04:32:37;;;;;;;13.57;8.55;;;;;;;6.58;77.98;100352.88;5005174;28;20065;-78
2022/04/19 04:35:04;;;;;;;11.02;8.40;;;;;;;6.02;77.36;100307.72;5014302;28;20052;-73
2022/04/19 04:37:29;;;;;;;18.35;9.25;;;;;;;6.71;77.22;100363.50;5010799;28;20472;-75
2022/04/19 04:39:56;;;;;;;12.23;8.20;;;;;;;6.81;77.29;100359.31;5014129;28;20061;-74
2022/04/19 04:42:24;;;;;;;12.27;8.75;;;;;;;6.55;77.72;100315.50;5017243;28;20048;-76
2022/04/19 04:44:49;;;;;;;9.27;7.45;;;;;;;6.90;78.08;100359.44;5010722;28;20046;-77
2022/04/19 04:50:00;;;;;;;10.52;7.72;;;;;;;6.91;77.78;100366.44;4999797;28;20053;-75
2022/04/19 04:52:25;;;;;;;9.27;8.05;;;;;;;6.57;77.45;100317.25;5013427;28;20053;-75
2022/04/19 04:54:52;;;;;;;11.50;7.45;;;;;;;6.83;78.53;100356.72;4985212;28;20038;-75
2022/04/19 04:57:19;;;;;;;11.57;8.10;;;;;;;6.88;78.54;100370.69;5016368;28;20677;-77
2022/04/19 04:59:47;;;;;;;10.10;8.90;;;;;;;6.91;78.75;100389.03;5011784;28;20967;-75
2022/04/19 05:02:23;;;;;;;12.55;9.80;;;;;;;6.81;79.12;100359.31;5015450;28;20060;-75
2022/04/19 05:04:49;;;;;;;10.50;8.63;;;;;;;6.73;80.53;100369.63;4974928;28;20064;-75
2022/04/19 05:07:15;;;;;;;11.90;9.57;;;;;;;6.84;81.41;100388.06;5005072;28;20493;-76
2022/04/19 05:09:41;;;;;;;15.30;8.85;;;;;;;6.62;81.71;100383.34;5014173;28;20220;-74
2022/04/19 05:12:07;;;;;;;27.45;11.32;;;;;;;6.28;81.71;100385.44;5013191;28;20054;-74
2022/04/19 05:14:32;;;;;;;15.00;11.55;;;;;;;6.42;82.38;100383.94;5016312;28;20520;-78
2022/04/19 05:16:58;;;;;;;18.77;11.00;;;;;;;6.51;82.70;100397.13;4995852;28;20064;-79
2022/04/19 05:19:23;;;;;;;15.43;11.10;;;;;;;6.40;83.18;100398.66;5011521;28;20097;-77
2022/04/19 05:21:48;;;;;;;14.43;11.75;;;;;;;6.44;83.67;100405.69;4994665;28;20771;-76
2022/04/19 05:24:14;;;;;;;15.40;10.73;;;;;;;6.35;84.70;100384.69;5010427;28;20033;-77
2022/04/19 05:26:41;;;;;;;24.92;12.82;;;;;;;6.22;84.72;100361.88;4984527;28;20536;-76
2022/04/19 05:29:07;;;;;;;15.57;13.25;;;;;;;6.17;84.63;100361.78;5009811;28;20052;-77
2022/04/19 05:31:32;;;;;;;13.77;11.52;;;;;;;6.44;85.84;100407.38;5002851;28;20518;-78
2022/04/19 05:33:58;;;;;;;16.27;10.48;;;;;;;6.38;85.68;100417.72;5006812;28;20104;-76
2022/04/19 05:36:24;;;;;;;10.32;6.10;;;;;;;4.88;80.49;100345.38;5016969;28;20056;-76
2022/04/19 05:38:52;;;;;;;10.75;7.70;;;;;;;5.14;80.79;100424.81;5016089;28;20046;-76
2022/04/19 05:41:24;;;;;;;10.05;6.75;;;;;;;5.36;83.55;100378.44;5018547;28;20135;-76
2022/04/19 05:44:09;;;;;;;13.45;8.90;;;;;;;5.52;84.18;100377.91;5005396;28;20921;-79
2022/04/19 05:46:38;;;;;;;14.95;10.10;;;;;;;5.70;85.30;100437.28;5011096;28;20690;-81
2022/04/19 05:49:06;;;;;;;16.67;11.88;;;;;;;5.75;86.78;100429.56;5018523;28;20063;-76
2022/04/19 05:51:35;;;;;;;13.50;10.63;;;;;;;5.43;86.72;100385.53;5023697;28;20063;-77
2022/04/19 05:54:02;;;;;;;11.50;9.85;;;;;;;5.75;85.84;100429.56;5006059;28;20153;-76
2022/04/19 05:56:36;;;;;;;12.55;9.52;;;;;;;5.86;86.49;100434.13;5020701;28;20052;-77
2022/04/19 05:59:04;;;;;;;15.45;11.30;;;;;;;5.95;87.02;100430.88;5022955;28;20045;-76
2022/04/19 06:04:51;;;;;;;7.82;5.72;;;;;;;5.77;83.51;100436.56;5023842;28;20045;-76
2022/04/19 06:07:01;;;;;;;12.68;7.35;;;;;;;4.70;83.87;100320.72;5006175;28;20067;-74
2022/04/19 06:09:27;;;;;;;11.57;7.10;;;;;;;5.25;86.21;100406.88;4995019;28;20050;-76
2022/04/19 06:11:54;;;;;;;12.85;8.80;;;;;;;5.50;86.05;100442.06;5020542;28;20060;-76
2022/04/19 06:14:19;;;;;;;14.27;7.85;;;;;;;4.96;85.36;100414.00;5005821;28;20064;-75
2022/04/19 06:16:45;;;;;;;8.85;7.15;;;;;;;5.50;86.04;100457.69;5001982;28;20042;-76
2022/04/19 06:19:10;;;;;;;6.60;5.03;;;;;;;5.00;85.07;100454.84;5022880;28;20133;-76
2022/04/19 06:21:36;;;;;;;8.07;4.95;;;;;;;5.40;84.78;100469.63;5023210;28;20069;-75
2022/04/19 06:24:04;;;;;;;8.85;5.32;;;;;;;5.43;85.05;100464.50;5023732;28;20040;-75
2022/04/19 06:26:30;;;;;;;5.97;4.63;;;;;;;4.85;85.16;100476.19;5007661;28;20037;-75
2022/04/19 06:28:57;;;;;;;8.48;5.97;;;;;;;5.21;85.67;100470.94;5004406;28;20041;-75
2022/04/19 06:31:22;;;;;;;7.10;5.03;;;;;;;5.10;86.10;100450.72;5003494;28;20867;-75
2022/04/19 06:33:48;;;;;;;6.70;5.07;;;;;;;4.43;85.86;100425.78;5022812;28;20029;-76
2022/04/19 06:36:13;;;;;;;7.43;5.05;;;;;;;4.23;86.29;100425.25;5004150;28;20120;-76
2022/04/19 06:38:39;;;;;;;6.43;4.47;;;;;;;4.37;86.78;100423.00;4995818;28;20050;-77
2022/04/19 06:41:05;;;;;;;7.10;4.57;;;;;;;4.02;86.93;100428.16;5002654;28;20575;-75
2022/04/19 06:43:31;;;;;;;6.95;4.45;;;;;;;4.63;87.10;100477.34;5014237;28;20048;-75
2022/04/19 06:45:57;;;;;;;7.45;5.30;;;;;;;3.93;87.00;100403.69;5007377;28;20028;-80
2022/04/19 06:48:23;;;;;;;11.20;5.35;;;;;;;4.56;87.28;100471.13;5006099;28;20041;-76
2022/04/19 06:50:52;;;;;;;9.60;4.30;;;;;;;4.17;87.11;100451.09;5005076;28;20237;-74
2022/04/19 06:53:17;;;;;;;9.50;5.63;;;;;;;4.30;87.58;100422.81;5000683;28;20137;-75
2022/04/19 06:55:43;;;;;;;8.80;5.38;;;;;;;4.53;87.61;100459.78;5002044;28;20160;-75
2022/04/19 06:58:14;;;;;;;7.00;5.82;;;;;;;4.21;87.76;100415.66;5020292;28;20517;-80
2022/04/19 07:00:39;;;;;;;6.15;4.82;;;;;;;4.53;87.60;100463.25;5022667;28;20048;-76
2022/04/19 07:03:05;;;;;;;6.13;4.80;;;;;;;4.38;87.22;100481.94;5002098;28;20049;-78
2022/04/19 07:05:32;;;;;;;8.93;6.25;;;;;;;4.50;87.70;100433.72;5009814;28;20056;-77
2022/04/19 07:07:57;;;;;;;11.10;5.68;;;;;;;4.64;88.36;100434.94;5007412;28;20562;-75
2022/04/19 07:10:23;;;;;;;7.13;6.03;;;;;;;4.72;88.32;100437.72;5020889;28;20144;-75
2022/04/19 07:12:50;;;;;;;7.50;5.63;;;;;;;4.59;88.17;100450.44;5001950;28;20491;-75
2022/04/19 07:15:17;;;;;;;6.55;4.93;;;;;;;4.33;88.22;100431.59;5023918;28;20035;-80
2022/04/19 07:17:44;;;;;;;8.20;5.65;;;;;;;4.65;88.65;100462.69;5001638;28;20069;-77
2022/04/19 07:28:22;;;;;;;8.93;6.70;;;;;;;5.07;89.24;100487.94;5014554;28;20096;-80
2022/04/19 07:30:48;;;;;;;9.68;6.03;;;;;;;4.69;88.72;100482.72;5021028;28;20041;-78
2022/04/19 07:33:16;;;;;;;6.72;4.93;;;;;;;4.55;88.27;100497.94;5018461;28;22718;-78
2022/04/19 07:35:42;;;;;;;10.80;5.65;;;;;;;4.71;88.09;100482.75;5021650;28;20049;-75
2022/04/19 07:38:08;;;;;;;6.25;4.95;;;;;;;4.68;89.36;100498.25;5021074;28;20045;-74
2022/04/19 07:40:36;;;;;;;8.40;5.30;;;;;;;4.48;89.44;100500.38;4988600;28;20509;-74
2022/04/19 07:43:02;;;;;;;9.30;6.57;;;;;;;4.66;89.44;100459.25;5021638;28;20500;-75
2022/04/19 07:45:29;;;;;;;12.82;7.25;;;;;;;4.73;88.53;100449.84;5023638;28;20044;-76
2022/04/19 07:47:55;;;;;;;13.65;6.00;;;;;;;4.50;89.42;100444.13;5022939;28;20069;-78
2022/04/19 07:50:21;;;;;;;10.63;6.80;;;;;;;5.08;89.84;100507.94;5021058;28;20132;-75
2022/04/19 07:52:47;;;;;;;10.02;6.70;;;;;;;4.62;90.09;100437.50;5019974;28;20065;-78
2022/04/19 07:55:12;;;;;;;10.93;5.78;;;;;;;4.56;89.47;100494.50;5021117;28;20541;-75
2022/04/19 07:57:38;;;;;;;7.35;3.63;;;;;;;4.12;90.73;100511.50;5023590;28;20033;-75
2022/04/19 08:00:04;;;;;;;6.63;4.15;;;;;;;4.36;90.52;100491.41;4999747;28;20050;-74
2022/04/19 08:02:30;;;;;;;7.40;4.88;;;;;;;4.64;89.13;100502.50;5021280;28;20132;-77
2022/04/19 08:04:59;;;;;;;8.60;5.57;;;;;;;4.42;88.40;100469.88;5003559;28;20089;-74
2022/04/19 08:07:24;;;;;;;31.75;14.32;;;;;;;4.89;87.13;100524.78;5022170;28;20037;-75
2022/04/19 08:09:50;;;;;;;44.55;29.08;;;;;;;4.97;87.43;100506.78;5001989;28;20046;-76
2022/04/19 08:12:17;;;;;;;19.55;13.65;;;;;;;5.05;87.35;100502.63;5020426;28;20049;-77
2022/04/19 08:14:43;;;;;;;8.32;5.97;;;;;;;4.41;86.85;100514.91;5018522;28;20053;-77
2022/04/19 08:17:13;;;;;;;14.60;7.65;;;;;;;4.08;86.83;100471.59;5019684;28;20046;-74
2022/04/19 08:19:39;;;;;;;9.88;6.78;;;;;;;4.36;86.98;100470.63;5020287;28;20057;-75
2022/04/19 08:22:04;;;;;;;10.63;6.60;;;;;;;4.84;88.20;100505.59;5021942;28;20070;-75
2022/04/19 08:24:31;;;;;;;12.02;6.80;;;;;;;4.70;87.21;100512.16;5022947;28;20037;-78
2022/04/19 08:26:57;;;;;;;8.02;5.72;;;;;;;4.75;87.93;100459.47;5019305;28;20103;-74
2022/04/19 08:29:30;;;;;;;17.58;7.20;;;;;;;4.68;87.47;100454.06;5001170;28;20100;-73
2022/04/19 08:32:02;;;;;;;7.20;5.47;;;;;;;4.91;87.47;100510.09;5017160;28;20065;-76
2022/04/19 08:34:35;;;;;;;5.90;4.65;;;;;;;4.27;87.72;100465.19;5020379;28;20053;-75
2022/04/19 08:37:07;;;;;;;12.52;5.65;;;;;;;4.60;87.19;100501.53;5021959;28;20033;-81
2022/04/19 08:39:33;;;;;;;11.05;6.80;;;;;;;4.10;88.54;100508.00;5020993;28;20030;-76
2022/04/19 08:41:59;;;;;;;13.15;7.50;;;;;;;4.15;89.73;100515.06;5022208;28;21213;-75
2022/04/19 08:44:25;;;;;;;7.32;6.15;;;;;;;4.63;89.12;100501.59;5020216;28;20061;-74
2022/04/19 08:46:57;;;;;;;9.07;5.90;;;;;;;4.60;89.21;100511.94;5021404;28;20104;-75
2022/04/19 08:49:24;;;;;;;7.95;6.18;;;;;;;4.69;86.58;100507.81;5002880;28;20049;-74
2022/04/19 08:51:50;;;;;;;9.38;5.35;;;;;;;4.73;85.78;100512.25;5020971;28;20036;-80
2022/04/19 08:59:45;;;;;;;10.30;5.30;;;;;;;4.25;88.81;100507.53;4987893;28;20494;-78
2022/04/19 09:02:22;;;;;;;5.72;3.97;;;;;;;3.98;88.27;100454.91;5020936;28;20054;-75
2022/04/19 09:04:50;;;;;;;10.25;4.30;;;;;;;4.69;86.11;100500.91;5018721;28;20162;-78
2022/04/19 09:07:16;;;;;;;6.80;5.10;;;;;;;4.63;86.41;100504.22;5021569;28;20056;-77
2022/04/19 09:09:42;;;;;;;10.15;8.23;;;;;;;4.85;86.00;100491.78;5018753;28;20043;-78
2022/04/19 09:12:12;;;;;;;15.02;11.15;;;;;;;4.35;88.34;100455.84;5021509;28;20053;-76
2022/04/19 09:14:58;;;;;;;12.95;8.68;;;;;;;4.82;87.68;100502.97;5004695;28;20627;-75
2022/04/19 09:17:35;;;;;;;5.78;4.88;;;;;;;4.60;88.90;100498.06;5018993;28;20167;-74
2022/04/19 09:20:18;;;;;;;8.75;5.80;;;;;;;4.94;88.05;100498.88;5020015;28;20042;-74
2022/04/19 09:22:45;;;;;;;9.43;6.00;;;;;;;4.28;89.25;100460.88;5022325;28;20116;-75
2022/04/19 09:25:26;;;;;;;8.07;6.13;;;;;;;4.37;89.64;100442.91;5005830;28;20189;-75
2022/04/19 09:27:54;;;;;;;6.03;4.80;;;;;;;4.74;88.92;100449.91;5020903;28;20140;-78
2022/04/19 09:30:20;;;;;;;11.35;6.70;;;;;;;5.05;87.79;100472.31;5023064;28;20072;-78
2022/04/19 09:33:10;;;;;;;11.98;6.28;;;;;;;5.22;86.85;100496.13;5005366;28;20081;-76
2022/04/19 09:35:50;;;;;;;8.95;6.20;;;;;;;5.27;87.90;100478.88;5026320;28;21424;-76
2022/04/19 09:38:17;;;;;;;11.60;6.47;;;;;;;5.47;86.67;100487.13;5021955;28;20068;-79
2022/04/19 09:40:48;;;;;;;9.73;6.43;;;;;;;5.73;87.75;100494.59;5021060;28;20050;-79
2022/04/19 09:43:16;;;;;;;11.13;5.30;;;;;;;5.70;87.26;100487.63;5023570;28;20046;-79
2022/04/19 09:45:50;;;;;;;14.98;5.22;;;;;;;5.23;86.22;100445.84;5009339;28;20404;-74
2022/04/19 09:48:21;;;;;;;7.07;5.15;;;;;;;5.89;86.56;100495.81;5023985;28;20068;-79
2022/04/19 09:51:06;;;;;;;8.10;5.55;;;;;;;5.70;86.95;100489.34;5023022;28;20045;-79
2022/04/19 09:53:49;;;;;;;10.82;6.30;;;;;;;5.47;87.46;100442.00;5005229;28;20038;-75
2022/04/19 09:56:20;;;;;;;8.55;6.32;;;;;;;5.90;87.40;100494.97;5024498;28;20045;-74
2022/04/19 09:58:48;;;;;;;7.03;4.90;;;;;;;5.93;86.45;100471.59;5024173;28;20084;-79
2022/04/19 10:09:36;;;;;;;6.30;4.65;;;;;;;6.28;86.41;100482.72;5007233;28;20052;-76
2022/04/19 10:12:07;;;;;;;5.22;3.88;;;;;;;6.31;84.59;100490.56;5027056;28;20049;-74
2022/04/19 10:14:35;;;;;;;8.68;5.63;;;;;;;5.88;86.40;100449.81;5025708;28;20045;-76
2022/04/19 10:17:03;;;;;;;6.03;4.38;;;;;;;5.99;83.86;100465.66;5023418;28;20129;-75
2022/04/19 10:19:32;;;;;;;7.38;5.15;;;;;;;5.84;83.61;100442.75;4989656;28;20112;-77
2022/04/19 10:22:05;;;;;;;6.80;5.15;;;;;;;6.49;85.33;100481.34;5022869;28;20034;-76
2022/04/19 10:24:44;;;;;;;8.40;5.55;;;;;;;6.63;84.79;100479.00;5024148;28;20080;-76
2022/04/19 10:27:10;;;;;;;7.82;5.55;;;;;;;6.31;85.45;100427.16;5007057;28;20073;-79
2022/04/19 10:29:37;;;;;;;7.35;5.82;;;;;;;6.48;85.57;100470.03;5018848;28;20084;-75
2022/04/19 10:32:08;;;;;;;9.35;5.45;;;;;;;6.54;84.17;100480.56;5006101;28;20061;-75
2022/04/19 10:34:38;;;;;;;7.70;5.05;;;;;;;6.26;85.13;100414.06;5022345;28;20075;-75
2022/04/19 10:37:15;;;;;;;9.63;6.30;;;;;;;6.82;86.20;100496.69;5022983;28;20080;-75
2022/04/19 10:39:45;;;;;;;12.77;6.43;;;;;;;6.89;86.13;100476.81;5026799;28;20050;-75
2022/04/19 10:42:38;;;;;;;10.30;5.43;;;;;;;6.84;85.72;100468.03;5023581;28;20108;-78
2022/04/19 10:45:17;;;;;;;8.00;5.90;;;;;;;6.24;85.10;100434.00;5021061;28;20490;-76
2022/04/19 10:47:55;;;;;;;8.05;5.50;;;;;;;6.39;85.42;100411.66;5025013;28;20049;-73
2022/04/19 10:50:30;;;;;;;7.03;4.53;;;;;;;6.82;84.01;100417.59;5000540;28;20065;-75
2022/04/19 10:53:30;;;;;;;8.63;5.07;;;;;;;6.85;82.20;100417.63;5020114;28;20050;-74
2022/04/19 10:56:02;;;;;;;8.43;6.00;;;;;;;7.21;83.74;100460.75;5022420;28;20049;-74
2022/04/19 10:58:40;;;;;;;9.60;6.38;;;;;;;6.76;83.25;100405.31;5021312;28;20037;-74
2022/04/19 11:01:26;;;;;;;7.60;5.43;;;;;;;7.37;83.92;100453.19;5019035;28;20054;-73
2022/04/19 11:03:52;;;;;;;8.35;5.60;;;;;;;7.72;84.58;100454.47;5020948;28;20061;-76
2022/04/19 11:06:34;;;;;;;8.02;5.32;;;;;;;7.19;82.20;100409.41;5023007;28;20037;-73
2022/04/19 11:09:26;;;;;;;9.13;5.75;;;;;;;7.69;82.21;100430.94;5005251;28;20064;-75
2022/04/19 11:12:12;;;;;;;7.13;5.38;;;;;;;7.91;82.10;100451.22;5005371;28;20060;-75
2022/04/19 11:14:44;;;;;;;5.75;4.32;;;;;;;8.01;79.57;100441.75;5017307;28;20161;-78
2022/04/19 11:17:22;;;;;;;9.13;6.70;;;;;;;8.08;81.63;100445.28;5023183;28;20068;-77
2022/04/19 11:20:18;;;;;;;7.43;5.53;;;;;;;8.27;79.36;100435.94;5023377;28;20050;-77
2022/04/19 11:22:51;;;;;;;5.38;4.10;;;;;;;7.82;80.96;100407.59;5011050;28;20061;-75
2022/04/19 11:25:42;;;;;;;7.57;4.47;;;;;;;7.79;79.54;100370.97;5006435;28;20072;-76
2022/04/19 11:28:10;;;;;;;9.93;4.32;;;;;;;8.41;78.47;100440.44;5015089;28;20045;-78
2022/04/19 11:30:37;;;;;;;8.85;5.30;;;;;;;8.69;80.14;100425.00;5020975;28;20025;-76
2022/04/19 11:33:04;;;;;;;8.52;4.97;;;;;;;8.32;79.75;100368.88;5020213;28;20129;-75
2022/04/19 11:35:32;;;;;;;5.55;4.90;;;;;;;8.78;79.22;100429.41;5023335;28;20057;-81
2022/04/19 11:38:08;;;;;;;7.45;4.82;;;;;;;8.54;78.71;100440.53;5022052;28;20049;-75
2022/04/19 11:49:02;;;;;;;11.07;4.95;;;;;;;7.46;80.48;100378.44;5017261;28;20053;-74
2022/04/19 11:51:32;;;;;;;6.60;5.25;;;;;;;7.73;78.48;100386.59;5022862;28;20037;-75
2022/04/19 11:53:59;;;;;;;7.05;3.92;;;;;;;7.24;80.18;100422.53;5019170;28;20044;-75
2022/04/19 11:56:24;;;;;;;8.23;4.82;;;;;;;6.92;79.61;100386.41;4995680;28;20539;-76
2022/04/19 11:58:52;;;;;;;6.43;3.92;;;;;;;6.82;80.61;100428.00;5021172;28;20053;-75
2022/04/19 12:01:18;;;;;;;20.23;4.28;;;;;;;6.95;80.55;100449.09;5010143;28;20084;-77
2022/04/19 12:03:44;;;;;;;4.10;2.58;;;;;;;6.39;82.54;100424.69;5025746;28;20045;-75
2022/04/19 12:06:18;;;;;;;5.40;2.60;;;;;;;5.73;83.76;100369.66;5021260;28;21327;-74
2022/04/19 12:08:49;;;;;;;4.72;3.10;;;;;;;5.78;85.88;100407.06;5021550;28;20108;-75
2022/04/19 12:11:21;;;;;;;6.10;3.25;;;;;;;5.50;85.70;100395.22;5022132;28;20046;-75
2022/04/19 12:13:47;;;;;;;4.57;3.33;;;;;;;5.55;86.05;100390.09;5001663;28;20057;-79
2022/04/19 12:16:36;;;;;;;5.80;3.30;;;;;;;5.20;87.84;100370.34;5010388;28;20056;-80
2022/04/19 12:19:09;;;;;;;3.85;2.95;;;;;;;5.38;87.87;100377.63;5021238;28;20536;-79